createdAt,value
2023-05-14T00:01:26.544Z,5.800
2023-05-14T00:02:24.688Z,5.300
2023-05-14T00:03:24.077Z,5
2023-05-14T00:04:24.543Z,5.5
2023-05-14T00:05:24.326Z,6
2023-05-14T00:06:24.830Z,5.5
2023-05-14T00:07:23.961Z,5.599
2023-05-14T00:08:24.150Z,4.699
2023-05-14T00:09:24.168Z,5.099
2023-05-14T00:10:24.824Z,5.5
2023-05-14T00:11:24.548Z,5.699
2023-05-14T00:12:24.729Z,5.300
2023-05-14T00:13:24.773Z,5.199
2023-05-14T00:14:24.822Z,5.300
2023-05-14T00:15:24.503Z,6.400
2023-05-14T00:16:24.550Z,5.599
2023-05-14T00:17:24.634Z,5.400
2023-05-14T00:18:24.050Z,5.599
2023-05-14T00:19:24.672Z,5.099
2023-05-14T00:20:24.435Z,5.699
2023-05-14T00:21:24.844Z,5.099
2023-05-14T00:22:24.038Z,5.400
2023-05-14T00:23:23.886Z,5.099
2023-05-14T00:24:24.095Z,6
2023-05-14T00:25:24.066Z,5.199
2023-05-14T00:26:24.171Z,5.400
2023-05-14T00:27:24.282Z,5.900
2023-05-14T00:28:24.385Z,5.800
2023-05-14T00:29:24.371Z,5.300
2023-05-14T00:31:23.884Z,5.400
2023-05-14T00:33:24.323Z,6.199
2023-05-14T00:34:24.177Z,6.099
2023-05-14T00:35:24.297Z,5.199
2023-05-14T00:36:24.224Z,5.699
2023-05-14T00:37:24.341Z,5.900
2023-05-14T00:39:23.830Z,6.800
2023-05-14T00:40:24.458Z,6.5
2023-05-14T00:41:24.482Z,5.599
2023-05-14T00:42:24.270Z,6.699
2023-05-14T00:43:24.466Z,6.5
2023-05-14T00:44:24.272Z,5.300
2023-05-14T00:45:24.388Z,5.099
2023-05-14T00:46:24.351Z,5.400
2023-05-14T00:47:24.649Z,5
2023-05-14T00:48:24.527Z,5.5
2023-05-14T00:49:24.223Z,5.699
2023-05-14T00:50:24.732Z,5.300
2023-05-14T00:51:24.789Z,5.199
2023-05-14T00:52:24.450Z,6
2023-05-14T00:54:24.412Z,6.199
2023-05-14T00:55:24.614Z,5.5
2023-05-14T00:56:24.286Z,4.900
2023-05-14T00:57:24.346Z,5.199
2023-05-14T00:58:23.898Z,5.599
2023-05-14T00:59:24.205Z,6.599
2023-05-14T01:00:25.291Z,6.5
2023-05-14T01:01:24.699Z,6
2023-05-14T01:03:24.376Z,5.900
2023-05-14T01:04:23.970Z,5.800
2023-05-14T01:05:29.077Z,5.400
2023-05-14T01:06:24.205Z,5.300
2023-05-14T01:07:29.252Z,5.099
2023-05-14T01:08:24.480Z,5.699
2023-05-14T01:09:24.462Z,6.099
2023-05-14T01:10:24.652Z,5.300
2023-05-14T01:11:24.126Z,5.199
2023-05-14T01:12:24.051Z,5.599
2023-05-14T01:13:23.773Z,5
2023-05-14T01:14:24.546Z,6
2023-05-14T01:15:32.298Z,5.800
2023-05-14T01:16:24.253Z,5.699
2023-05-14T01:17:24.707Z,5.400
2023-05-14T01:18:24.681Z,5.699
2023-05-14T01:19:24.302Z,4.900
2023-05-14T01:20:24.860Z,5.400
2023-05-14T01:21:24.409Z,5.800
2023-05-14T01:22:23.965Z,6.199
2023-05-14T01:23:24.037Z,5.699
2023-05-14T01:24:24.092Z,5.900
2023-05-14T01:25:24.269Z,6.400
2023-05-14T01:26:24.214Z,5.300
2023-05-14T01:28:23.988Z,5.800
2023-05-14T01:29:23.900Z,5.5
2023-05-14T01:31:24.044Z,5.400
2023-05-14T01:32:24.642Z,5.800
2023-05-14T01:33:24.049Z,5.400
2023-05-14T01:34:24.247Z,5.599
2023-05-14T01:35:24.375Z,4.900
2023-05-14T01:36:24.455Z,5.400
2023-05-14T01:38:24.349Z,5.099
2023-05-14T01:39:24.215Z,5.199
2023-05-14T01:40:24.637Z,5
2023-05-14T01:41:24.191Z,5.400
2023-05-14T01:42:23.952Z,5
2023-05-14T01:44:24.968Z,5.400
2023-05-14T01:46:24.578Z,5.300
2023-05-14T01:47:24.577Z,5.099
2023-05-14T01:49:24.306Z,6.099
2023-05-14T01:50:24.592Z,5.5
2023-05-14T01:51:24.564Z,4.699
2023-05-14T01:52:24.704Z,5.800
2023-05-14T01:53:24.721Z,5.300
2023-05-14T01:54:24.025Z,4.900
2023-05-14T01:55:24.197Z,5.699
2023-05-14T01:56:24.148Z,4.699
2023-05-14T01:57:24.474Z,5.699
2023-05-14T01:58:24.425Z,5.199
2023-05-14T01:59:24.497Z,5.900
2023-05-14T02:00:25.973Z,5.400
2023-05-14T02:01:24.232Z,5.800
2023-05-14T02:02:24.386Z,5.199
2023-05-14T02:03:24.515Z,5.5
2023-05-14T02:04:23.826Z,5.400
2023-05-14T02:05:24.284Z,5.5
2023-05-14T02:06:24.489Z,4.800
2023-05-14T02:07:24.376Z,5.599
2023-05-14T02:08:24.386Z,5.400
2023-05-14T02:09:24.617Z,5.800
2023-05-14T02:10:24.447Z,5.699
2023-05-14T02:11:24.523Z,5.599
2023-05-14T02:12:24.337Z,6.300
2023-05-14T02:13:24.186Z,6.400
2023-05-14T02:14:24.303Z,7.5
2023-05-14T02:15:24.314Z,6.5
2023-05-14T02:16:24.432Z,6.699
2023-05-14T02:17:24.369Z,6.300
2023-05-14T02:18:24.801Z,7
2023-05-14T02:19:24.218Z,6.199
2023-05-14T02:20:24.630Z,6.300
2023-05-14T02:21:24.063Z,7.699
2023-05-14T02:22:24.122Z,7.800
2023-05-14T02:23:34.080Z,6.5
2023-05-14T02:24:23.884Z,7.400
2023-05-14T02:25:23.981Z,6.900
2023-05-14T02:26:24.140Z,6.300
2023-05-14T02:27:24.522Z,7.699
2023-05-14T02:28:23.914Z,7.800
2023-05-14T02:29:24.097Z,6.300
2023-05-14T02:30:24.690Z,7.300
2023-05-14T02:31:24.194Z,6.5
2023-05-14T02:32:23.971Z,6.099
2023-05-14T02:33:24.246Z,7
2023-05-14T02:34:24.193Z,6.199
2023-05-14T02:36:24.337Z,6.400
2023-05-14T02:37:24.318Z,6.699
2023-05-14T02:38:24.347Z,7.599
2023-05-14T02:39:24.226Z,6.099
2023-05-14T02:40:24.478Z,5.800
2023-05-14T02:41:24.595Z,6.400
2023-05-14T02:42:24.552Z,6.199
2023-05-14T02:43:24.436Z,5.5
2023-05-14T02:44:24.433Z,6
2023-05-14T02:45:24.740Z,5.900
2023-05-14T02:46:24.117Z,5.699
2023-05-14T02:47:24.468Z,6.5
2023-05-14T02:48:24.666Z,6.400
2023-05-14T02:49:24.422Z,5.5
2023-05-14T02:50:25.203Z,6.099
2023-05-14T02:51:24.532Z,6.599
2023-05-14T02:52:24.598Z,5.900
2023-05-14T02:53:23.896Z,6.300
2023-05-14T02:54:24.244Z,7.599
2023-05-14T02:55:24.693Z,6.5
2023-05-14T02:56:24.528Z,5.699
2023-05-14T02:57:24.212Z,6.400
2023-05-14T02:58:27.454Z,5.900
2023-05-14T02:59:23.913Z,5.800
2023-05-14T03:00:25.333Z,5.5
2023-05-14T03:01:24.148Z,5.300
2023-05-14T03:02:24.286Z,5.5
2023-05-14T03:03:23.919Z,5.300
2023-05-14T03:04:24.032Z,5.599
2023-05-14T03:05:24.137Z,9.100
2023-05-14T03:06:24.013Z,5.900
2023-05-14T03:07:24.328Z,6.599
2023-05-14T03:08:24.370Z,5.5
2023-05-14T03:09:24.547Z,5.599
2023-05-14T03:11:24.291Z,5.300
2023-05-14T03:12:24.074Z,6.900
2023-05-14T03:13:24.150Z,5.5
2023-05-14T03:14:24.249Z,5.599
2023-05-14T03:15:24.619Z,5.199
2023-05-14T03:17:24.634Z,5.5
2023-05-14T03:18:24.348Z,5.800
2023-05-14T03:19:24.514Z,5.300
2023-05-14T03:20:24.675Z,6.099
2023-05-14T03:21:23.966Z,5
2023-05-14T03:22:24.128Z,6.599
2023-05-14T03:23:24.077Z,5.800
2023-05-14T03:24:24.194Z,6.199
2023-05-14T03:25:24.313Z,5.699
2023-05-14T03:26:24.333Z,5.400
2023-05-14T03:27:24.268Z,6.300
2023-05-14T03:28:24.148Z,6.199
2023-05-14T03:30:24.843Z,5.5
2023-05-14T03:31:24.082Z,5.300
2023-05-14T03:32:24.177Z,6.900
2023-05-14T03:33:24.020Z,6.099
2023-05-14T03:34:24.261Z,5.400
2023-05-14T03:36:24.242Z,5.599
2023-05-14T03:37:24.308Z,5.5
2023-05-14T03:38:24.090Z,5.099
2023-05-14T03:39:24.237Z,5.900
2023-05-14T03:40:24.606Z,6.900
2023-05-14T03:41:23.846Z,5.699
2023-05-14T03:43:23.889Z,5.5
2023-05-14T03:44:24.258Z,6.400
2023-05-14T03:45:24.608Z,6.099
2023-05-14T03:46:24.681Z,5.800
2023-05-14T03:47:24.818Z,5.699
2023-05-14T03:48:38.343Z,7.5
2023-05-14T03:49:24.850Z,6.199
2023-05-14T03:50:24.724Z,5.199
2023-05-14T03:51:24.436Z,5.599
2023-05-14T03:53:24.232Z,6.699
2023-05-14T03:54:24.845Z,5.699
2023-05-14T03:55:24.543Z,7.199
2023-05-14T03:56:24.158Z,5.599
2023-05-14T03:57:24.274Z,7.400
2023-05-14T03:58:24.593Z,5.5
2023-05-14T03:59:23.927Z,5.599
2023-05-14T04:00:25.452Z,5.800
2023-05-14T04:01:24.007Z,5.599
2023-05-14T04:04:24.261Z,5.900
2023-05-14T04:05:24.533Z,6.5
2023-05-14T04:06:23.975Z,7
2023-05-14T04:07:24.184Z,6.300
2023-05-14T04:08:24.387Z,7.5
2023-05-14T04:09:24.733Z,5.400
2023-05-14T04:10:24.532Z,6
2023-05-14T04:12:24.323Z,6.199
2023-05-14T04:13:24.429Z,5.900
2023-05-14T04:14:24.660Z,6.099
2023-05-14T04:16:24.554Z,5.800
2023-05-14T04:19:24.396Z,5.099
2023-05-14T04:20:24.698Z,6.300
2023-05-14T04:21:24.117Z,6.599
2023-05-14T04:22:24.205Z,6
2023-05-14T04:23:24.476Z,5.699
2023-05-14T04:24:24.085Z,6.099
2023-05-14T04:25:24.623Z,6.599
2023-05-14T04:26:24.233Z,5.900
2023-05-14T04:27:24.191Z,6.699
2023-05-14T04:28:24.412Z,5.599
2023-05-14T04:29:24.795Z,5.900
2023-05-14T04:30:24.711Z,6.199
2023-05-14T04:31:24.335Z,6.5
2023-05-14T04:32:24.919Z,5.900
2023-05-14T04:33:24.320Z,6
2023-05-14T04:34:24.634Z,5.800
2023-05-14T04:35:25.137Z,6.300
2023-05-14T04:36:24.374Z,6.099
2023-05-14T04:37:24.622Z,6.300
2023-05-14T04:38:23.928Z,6.5
2023-05-14T04:39:24.270Z,5.699
2023-05-14T04:40:24.898Z,6.599
2023-05-14T04:41:24.289Z,6.199
2023-05-14T04:42:24.410Z,6.599
2023-05-14T04:43:24.196Z,6.400
2023-05-14T04:44:24.584Z,6.900
2023-05-14T04:45:24.530Z,6.800
2023-05-14T04:46:24.346Z,7.400
2023-05-14T04:47:24.815Z,7
2023-05-14T04:48:24.152Z,6.900
2023-05-14T04:49:24.567Z,6.699
2023-05-14T04:50:24.679Z,6.400
2023-05-14T04:52:24.557Z,6.5
2023-05-14T04:53:24.102Z,6.400
2023-05-14T04:54:24.597Z,6.900
2023-05-14T04:55:24.363Z,7
2023-05-14T04:56:24.917Z,7.900
2023-05-14T04:57:24.617Z,6.300
2023-05-14T04:58:24.340Z,6.900
2023-05-14T04:59:24.825Z,6.699
2023-05-14T05:00:25.625Z,6.800
2023-05-14T05:01:24.587Z,7.300
2023-05-14T05:02:24.481Z,6.400
2023-05-14T05:03:24.402Z,7.199
2023-05-14T05:04:23.948Z,7.599
2023-05-14T05:05:24.420Z,7.300
2023-05-14T05:06:24.423Z,6.599
2023-05-14T05:07:24.520Z,7.099
2023-05-14T05:09:24.372Z,6.5
2023-05-14T05:10:24.712Z,7.099
2023-05-14T05:11:24.057Z,6.199
2023-05-14T05:12:24.376Z,6.800
2023-05-14T05:13:24.458Z,6.400
2023-05-14T05:14:24.643Z,5.699
2023-05-14T05:15:26.524Z,5.800
2023-05-14T05:16:24.414Z,5.699
2023-05-14T05:17:24.935Z,5.800
2023-05-14T05:19:35.723Z,6.300
2023-05-14T05:20:24.570Z,7.300
2023-05-14T05:21:24.151Z,6
2023-05-14T05:22:24.190Z,6.300
2023-05-14T05:24:24.571Z,6
2023-05-14T05:25:24.165Z,6.5
2023-05-14T05:26:24.548Z,6.400
2023-05-14T05:27:24.233Z,6.099
2023-05-14T05:28:24.677Z,5.599
2023-05-14T05:29:24.297Z,6.099
2023-05-14T05:30:24.909Z,5.5
2023-05-14T05:31:24.160Z,6.800
2023-05-14T05:32:24.647Z,5.800
2023-05-14T05:33:23.908Z,6
2023-05-14T05:34:24.509Z,7.099
2023-05-14T05:35:24.663Z,5.5
2023-05-14T05:36:24.142Z,5.800
2023-05-14T05:37:24.517Z,6.599
2023-05-14T05:38:24.126Z,5.699
2023-05-14T05:39:24.747Z,5.5
2023-05-14T05:40:24.316Z,6.599
2023-05-14T05:41:24.573Z,6.300
2023-05-14T05:42:24.558Z,5.5
2023-05-14T05:43:23.950Z,7.099
2023-05-14T05:45:24.800Z,5.599
2023-05-14T05:46:24.313Z,7.5
2023-05-14T05:47:24.963Z,6.199
2023-05-14T05:48:24.644Z,7.5
2023-05-14T05:49:24.449Z,5.699
2023-05-14T05:50:24.515Z,6.199
2023-05-14T05:51:24.360Z,7
2023-05-14T05:52:24.825Z,9.100
2023-05-14T05:53:24.377Z,7.5
2023-05-14T05:54:24.906Z,7.900
2023-05-14T05:55:24.499Z,7.300
2023-05-14T05:56:24.193Z,6.800
2023-05-14T05:58:24.416Z,7.199
2023-05-14T05:59:24.977Z,6.099
2023-05-14T06:00:25.830Z,5.699
2023-05-14T06:01:29.691Z,5.800
2023-05-14T06:03:23.944Z,6
2023-05-14T06:04:24.407Z,5.5
2023-05-14T06:05:24.644Z,5.900
2023-05-14T06:06:24.142Z,5.400
2023-05-14T06:07:24.332Z,5.099
2023-05-14T06:08:24.426Z,6.400
2023-05-14T06:09:24.058Z,5.900
2023-05-14T06:10:24.755Z,6.400
2023-05-14T06:11:32.454Z,7.300
2023-05-14T06:12:24.550Z,7.900
2023-05-14T06:13:38.351Z,6.900
2023-05-14T06:14:24.620Z,6.400
2023-05-14T06:15:24.115Z,7.099
2023-05-14T06:16:24.120Z,7.300
2023-05-14T06:18:24.607Z,6.300
2023-05-14T06:19:24.118Z,7.300
2023-05-14T06:20:24.688Z,9.800
2023-05-14T06:21:24.216Z,7.599
2023-05-14T06:22:24.476Z,7.199
2023-05-14T06:23:24.491Z,7.400
2023-05-14T06:24:24.108Z,9.100
2023-05-14T06:25:24.381Z,8.399
2023-05-14T06:26:24.533Z,7.599
2023-05-14T06:27:23.979Z,9.699
2023-05-14T06:28:24.281Z,9.5
2023-05-14T06:29:24.569Z,7.800
2023-05-14T06:30:24.625Z,7.900
2023-05-14T06:31:24.230Z,9.300
2023-05-14T06:32:24.721Z,8.300
2023-05-14T06:33:24.194Z,7.800
2023-05-14T06:34:24.459Z,9.5
2023-05-14T06:35:24.506Z,9.100
2023-05-14T06:36:23.851Z,7.699
2023-05-14T06:37:24.284Z,9.5
2023-05-14T06:38:24.438Z,7.900
2023-05-14T06:39:24.899Z,8.699
2023-05-14T06:40:24.745Z,9.399
2023-05-14T06:41:24.293Z,11.10
2023-05-14T06:42:24.522Z,9.600
2023-05-14T06:43:24.449Z,9.100
2023-05-14T06:44:23.750Z,9.399
2023-05-14T06:45:24.592Z,8.800
2023-05-14T06:46:24.121Z,8.699
2023-05-14T06:47:24.604Z,10.19
2023-05-14T06:48:24.380Z,10.69
2023-05-14T06:49:24.137Z,9.800
2023-05-14T06:50:24.747Z,8.899
2023-05-14T06:51:24.586Z,9
2023-05-14T06:52:24.023Z,9.100
2023-05-14T06:53:24.431Z,8.399
2023-05-14T06:54:24.627Z,8.800
2023-05-14T06:55:24.432Z,9.199
2023-05-14T06:56:23.993Z,9.399
2023-05-14T06:57:24.729Z,9.199
2023-05-14T06:58:24.304Z,9.600
2023-05-14T06:59:24.876Z,13.10
2023-05-14T07:00:26.041Z,10.30
2023-05-14T07:02:28.386Z,9.300
2023-05-14T07:03:23.811Z,9.100
2023-05-14T07:04:24.418Z,12.30
2023-05-14T07:05:24.351Z,9.100
2023-05-14T07:06:24.744Z,9.600
2023-05-14T07:07:24.101Z,9.300
2023-05-14T07:08:24.436Z,9.899
2023-05-14T07:09:24.744Z,11.30
2023-05-14T07:10:24.647Z,11.5
2023-05-14T07:11:24.505Z,13.5
2023-05-14T07:12:23.976Z,10.60
2023-05-14T07:13:24.955Z,10.10
2023-05-14T07:14:24.212Z,11
2023-05-14T07:15:24.901Z,11.69
2023-05-14T07:16:24.492Z,11.60
2023-05-14T07:17:24.741Z,11.80
2023-05-14T07:19:24.539Z,11.5
2023-05-14T07:20:24.599Z,10.60
2023-05-14T07:21:24.257Z,10
2023-05-14T07:22:24.350Z,11.60
2023-05-14T07:23:24.665Z,11.80
2023-05-14T07:25:24.506Z,9.800
2023-05-14T07:26:24.696Z,11.5
2023-05-14T07:27:24.325Z,11.19
2023-05-14T07:28:24.500Z,10.5
2023-05-14T07:29:24.518Z,10.19
2023-05-14T07:30:25.172Z,11.19
2023-05-14T07:31:24.803Z,11.89
2023-05-14T07:32:24.270Z,11.80
2023-05-14T07:34:24.587Z,10.5
2023-05-14T07:35:24.023Z,11.30
2023-05-14T07:36:24.354Z,12.5
2023-05-14T07:37:24.515Z,10.69
2023-05-14T07:38:24.520Z,13
2023-05-14T07:39:23.846Z,11.39
2023-05-14T07:40:24.862Z,11.80
2023-05-14T07:41:24.542Z,13.19
2023-05-14T07:42:34.543Z,11.69
2023-05-14T07:43:24.069Z,13
2023-05-14T07:44:24.319Z,13.39
2023-05-14T07:45:24.635Z,13
2023-05-14T07:46:24.187Z,12.69
2023-05-14T07:47:24.704Z,12.5
2023-05-14T07:48:24.338Z,11.5
2023-05-14T07:49:24.193Z,9.699
2023-05-14T07:50:25.121Z,11.19
2023-05-14T07:51:24.614Z,10.10
2023-05-14T07:52:24.238Z,12.39
2023-05-14T07:53:24.770Z,13
2023-05-14T07:54:24.518Z,11
2023-05-14T07:55:24.917Z,11.19
2023-05-14T07:56:24.550Z,11.30
2023-05-14T07:57:24.085Z,11.69
2023-05-14T07:58:24.736Z,9.699
2023-05-14T07:59:24.889Z,9.800
2023-05-14T08:00:25.887Z,9.199
2023-05-14T08:01:24.645Z,9.600
2023-05-14T08:02:24.593Z,10.39
2023-05-14T08:03:24.510Z,11.80
2023-05-14T08:04:24.860Z,11.30
2023-05-14T08:05:24.925Z,11.69
2023-05-14T08:06:24.728Z,12.10
2023-05-14T08:07:24.428Z,12.69
2023-05-14T08:08:24.796Z,14.5
2023-05-14T08:09:24.331Z,12
2023-05-14T08:10:25.264Z,11.19
2023-05-14T08:11:24.178Z,11.60
2023-05-14T08:12:24.746Z,12
2023-05-14T08:13:24.598Z,13.30
2023-05-14T08:14:24.273Z,11.80
2023-05-14T08:15:27.605Z,13.39
2023-05-14T08:16:24.552Z,11.60
2023-05-14T08:17:24.415Z,10.80
2023-05-14T08:18:24.254Z,11.60
2023-05-14T08:19:24.546Z,11.80
2023-05-14T08:20:24.743Z,11.39
2023-05-14T08:21:24.606Z,12
2023-05-14T08:22:29.412Z,15.19
2023-05-14T08:23:24.932Z,15.89
2023-05-14T08:24:29.618Z,12.80
2023-05-14T08:25:24.474Z,11.80
2023-05-14T08:26:24.061Z,12.60
2023-05-14T08:27:24.674Z,11.69
2023-05-14T08:28:32.113Z,12.10
2023-05-14T08:29:24.234Z,13.19
2023-05-14T08:30:30.092Z,12.39
2023-05-14T08:31:24.572Z,12.5
2023-05-14T08:33:24.381Z,10.80
2023-05-14T08:34:24.790Z,11.80
2023-05-14T08:35:24.745Z,12
2023-05-14T08:36:32.300Z,13.80
2023-05-14T08:37:24.248Z,13.60
2023-05-14T08:38:24.815Z,10.80
2023-05-14T08:39:24.437Z,10.39
2023-05-14T08:40:25.188Z,12.10
2023-05-14T08:41:24.205Z,12.89
2023-05-14T08:42:24.484Z,10.89
2023-05-14T08:43:24.076Z,10.60
2023-05-14T08:44:24.567Z,10.10
2023-05-14T08:45:24.336Z,13.30
2023-05-14T08:46:24.312Z,10.60
2023-05-14T08:47:25.083Z,9.699
2023-05-14T08:48:24.910Z,10
2023-05-14T08:49:24.358Z,9.699
2023-05-14T08:50:25.361Z,8.800
2023-05-14T08:51:24.259Z,10.10
2023-05-14T08:52:24.664Z,11.19
2023-05-14T08:53:24.462Z,9.5
2023-05-14T08:54:43.270Z,9.800
2023-05-14T08:55:25.084Z,9.5
2023-05-14T08:56:24.666Z,8.300
2023-05-14T08:57:24.214Z,8.699
2023-05-14T08:58:24.371Z,9.300
2023-05-14T08:59:24.683Z,9
2023-05-14T09:00:25.807Z,9.199
2023-05-14T09:01:24.627Z,10
2023-05-14T09:02:43.682Z,9.800
2023-05-14T09:03:24.452Z,10.10
2023-05-14T09:04:46.382Z,9.699
2023-05-14T09:06:24.220Z,7.400
2023-05-14T09:07:24.714Z,8.199
2023-05-14T09:08:24.569Z,7.300
2023-05-14T09:09:24.122Z,6.699
2023-05-14T09:10:25.035Z,8.199
2023-05-14T09:11:24.803Z,7.300
2023-05-14T09:12:24.201Z,7.800
2023-05-14T09:15:24.424Z,6.300
2023-05-14T09:16:24.385Z,6.599
2023-05-14T09:17:24.143Z,6.5
2023-05-14T09:18:24.974Z,6.199
2023-05-14T09:19:25.029Z,8.199
2023-05-14T09:20:25.538Z,7.300
2023-05-14T09:21:24.534Z,7.199
2023-05-14T09:22:24.332Z,7.5
2023-05-14T09:23:24.154Z,7.599
2023-05-14T09:24:24.938Z,8.600
2023-05-14T09:25:24.737Z,7.099
2023-05-14T09:26:24.546Z,8.399
2023-05-14T09:27:24.389Z,7.800
2023-05-14T09:28:24.593Z,6.800
2023-05-14T09:29:24.247Z,6.400
2023-05-14T09:30:25.292Z,9.399
2023-05-14T09:31:24.687Z,7.099
2023-05-14T09:33:28.101Z,8
2023-05-14T09:35:24.400Z,13.69
2023-05-14T09:36:24.610Z,8
2023-05-14T09:37:24.230Z,9
2023-05-14T09:38:24.775Z,8
2023-05-14T09:39:24.462Z,6.5
2023-05-14T09:40:24.860Z,9.300
2023-05-14T09:41:24.623Z,7.099
2023-05-14T09:42:24.364Z,6.599
2023-05-14T09:43:24.502Z,6.800
2023-05-14T09:44:24.189Z,7.400
2023-05-14T09:45:24.983Z,8.5
2023-05-14T09:46:24.592Z,7.5
2023-05-14T09:47:24.276Z,8.600
2023-05-14T09:48:24.459Z,7.099
2023-05-14T09:51:24.351Z,6.5
2023-05-14T09:52:24.641Z,7
2023-05-14T09:53:24.367Z,6.199
2023-05-14T09:54:24.738Z,5.5
2023-05-14T09:55:24.610Z,6.199
2023-05-14T09:56:24.260Z,5.699
2023-05-14T09:57:24.100Z,5.300
2023-05-14T09:58:24.455Z,5.099
2023-05-14T09:59:24.298Z,5.800
2023-05-14T10:00:25.950Z,5.300
2023-05-14T10:02:24.808Z,4.5
2023-05-14T10:03:24.451Z,5.099
2023-05-14T10:04:24.894Z,5.800
2023-05-14T10:05:24.738Z,4.400
2023-05-14T10:07:24.076Z,4.300
2023-05-14T10:08:24.521Z,3.900
2023-05-14T10:09:24.181Z,4.400
2023-05-14T10:10:25.525Z,4.599
2023-05-14T10:12:24.620Z,5
2023-05-14T10:13:24.241Z,5.300
2023-05-14T10:14:24.780Z,5.599
2023-05-14T10:15:24.668Z,5.400
2023-05-14T10:16:24.413Z,4.900
2023-05-14T10:17:24.417Z,5.099
2023-05-14T10:18:24.856Z,6.599
2023-05-14T10:19:24.673Z,5
2023-05-14T10:20:25.125Z,5.5
2023-05-14T10:21:24.181Z,4.5
2023-05-14T10:22:24.986Z,5.599
2023-05-14T10:23:24.275Z,4.400
2023-05-14T10:24:24.804Z,4.300
2023-05-14T10:25:24.624Z,4.800
2023-05-14T10:26:24.531Z,4.5
2023-05-14T10:27:24.178Z,5.199
2023-05-14T10:28:24.434Z,4.800
2023-05-14T10:29:24.814Z,6.199
2023-05-14T10:30:24.929Z,5.800
2023-05-14T10:31:24.614Z,5.099
2023-05-14T10:32:24.431Z,5
2023-05-14T10:33:24.637Z,6.300
2023-05-14T10:34:24.686Z,5.5
2023-05-14T10:35:24.242Z,5.199
2023-05-14T10:36:24.709Z,5.099
2023-05-14T10:37:24.015Z,4.599
2023-05-14T10:38:24.551Z,5.300
2023-05-14T10:39:24.200Z,5.400
2023-05-14T10:41:24.672Z,5.699
2023-05-14T10:42:24.172Z,6.400
2023-05-14T10:43:23.950Z,5.599
2023-05-14T10:44:24.534Z,5.099
2023-05-14T10:45:29.328Z,5.599
2023-05-14T10:46:24.833Z,5
2023-05-14T10:47:29.630Z,3.799
2023-05-14T10:48:24.157Z,5.099
2023-05-14T10:49:43.003Z,3.5
2023-05-14T10:50:24.548Z,3.799
2023-05-14T10:51:29.468Z,4.199
2023-05-14T10:52:24.174Z,3.200
2023-05-14T10:53:29.757Z,3.400
2023-05-14T10:54:24.521Z,5.300
2023-05-14T10:55:24.462Z,2.700
2023-05-14T10:56:24.219Z,3.299
2023-05-14T10:57:24.024Z,4.699
2023-05-14T10:58:24.304Z,3.400
2023-05-14T10:59:24.343Z,4.599
2023-05-14T11:00:25.623Z,3.799
2023-05-14T11:01:24.414Z,4
2023-05-14T11:02:24.018Z,3.299
2023-05-14T11:03:24.669Z,3.799
2023-05-14T11:04:24.384Z,3.599
2023-05-14T11:05:24.744Z,3
2023-05-14T11:06:24.616Z,3.400
2023-05-14T11:07:24.211Z,3.099
2023-05-14T11:08:27.004Z,3.700
2023-05-14T11:09:24.698Z,3.099
2023-05-14T11:10:24.657Z,3.900
2023-05-14T11:11:38.514Z,4.400
2023-05-14T11:12:24.329Z,4.5
2023-05-14T11:13:24.140Z,5.199
2023-05-14T11:14:24.716Z,4.400
2023-05-14T11:15:24.717Z,5
2023-05-14T11:17:24.292Z,4.5
2023-05-14T11:18:24.401Z,4.599
2023-05-14T11:19:43.762Z,4.099
2023-05-14T11:20:24.489Z,4.599
2023-05-14T11:21:24.386Z,5.400
2023-05-14T11:22:24.219Z,4.300
2023-05-14T11:23:24.726Z,4.800
2023-05-14T11:24:24.260Z,5.5
2023-05-14T11:25:24.876Z,5.699
2023-05-14T11:26:24.493Z,5
2023-05-14T11:27:24.230Z,5.800
2023-05-14T11:28:24.851Z,4.900
2023-05-14T11:29:24.571Z,6.400
2023-05-14T11:30:24.849Z,6.099
2023-05-14T11:31:24.771Z,4.900
2023-05-14T11:32:24.268Z,5.800
2023-05-14T11:33:23.982Z,5.5
2023-05-14T11:34:24.597Z,5.099
2023-05-14T11:35:24.220Z,5.199
2023-05-14T11:36:24.716Z,5.599
2023-05-14T11:37:24.589Z,5.5
2023-05-14T11:38:24.146Z,5.099
2023-05-14T11:39:24.730Z,5.800
2023-05-14T11:40:24.661Z,5.300
2023-05-14T11:41:24.577Z,7.099
2023-05-14T11:42:24.536Z,6.900
2023-05-14T11:43:24.169Z,5.599
2023-05-14T11:44:24.794Z,7.099
2023-05-14T11:45:24.697Z,5.800
2023-05-14T11:46:24.441Z,5.300
2023-05-14T11:47:24.232Z,7.199
2023-05-14T11:48:24.413Z,5.800
2023-05-14T11:50:28.741Z,7.699
2023-05-14T11:51:24.617Z,6.199
2023-05-14T11:52:24.236Z,5.699
2023-05-14T11:53:24.824Z,7.099
2023-05-14T11:54:24.510Z,5.599
2023-05-14T11:55:24.309Z,8.800
2023-05-14T11:56:25.098Z,6.599
2023-05-14T11:57:24.804Z,6.400
2023-05-14T11:58:24.557Z,6.699
2023-05-14T11:59:24.249Z,7.800
2023-05-14T12:00:25.805Z,7.400
2023-05-14T12:01:24.419Z,7.199
2023-05-14T12:03:24.849Z,6.5
2023-05-14T12:04:24.264Z,6.699
2023-05-14T12:05:24.127Z,5.699
2023-05-14T12:06:24.149Z,6.099
2023-05-14T12:07:24.578Z,8.800
2023-05-14T12:08:23.768Z,6.5
2023-05-14T12:09:24.253Z,6.400
2023-05-14T12:10:25.114Z,6.699
2023-05-14T12:11:24.626Z,7.099
2023-05-14T12:12:24.281Z,7.5
2023-05-14T12:13:24.225Z,9.199
2023-05-14T12:14:24.952Z,9.899
2023-05-14T12:15:24.552Z,9.5
2023-05-14T12:16:24.544Z,9.699
2023-05-14T12:17:24.654Z,9.600
2023-05-14T12:18:25.341Z,9.800
2023-05-14T12:19:24.392Z,8.100
2023-05-14T12:20:24.456Z,7.699
2023-05-14T12:21:24.250Z,8.699
2023-05-14T12:22:24.810Z,7.699
2023-05-14T12:23:24.133Z,6.699
2023-05-14T12:24:24.645Z,8.5
2023-05-14T12:25:24.491Z,10.39
2023-05-14T12:26:24.081Z,7.800
2023-05-14T12:27:24.456Z,7.5
2023-05-14T12:28:24.751Z,9.800
2023-05-14T12:29:24.323Z,8.699
2023-05-14T12:30:24.845Z,8.899
2023-05-14T12:31:24.579Z,9.699
2023-05-14T12:32:24.357Z,11.10
2023-05-14T12:33:24.239Z,9.399
2023-05-14T12:34:24.727Z,10.10
2023-05-14T12:36:24.238Z,8.800
2023-05-14T12:37:24.460Z,9
2023-05-14T12:38:24.260Z,10
2023-05-14T12:40:24.695Z,11.69
2023-05-14T12:41:24.297Z,11
2023-05-14T12:42:24.645Z,9.5
2023-05-14T12:43:24.423Z,11.10
2023-05-14T12:44:24.437Z,10.19
2023-05-14T12:45:25.264Z,11.19
2023-05-14T12:46:24.558Z,9.800
2023-05-14T12:47:24.678Z,14.10
2023-05-14T12:48:24.657Z,9.300
2023-05-14T12:49:24.509Z,11.39
2023-05-14T12:50:24.821Z,11.19
2023-05-14T12:51:24.823Z,9.899
2023-05-14T12:52:36.643Z,10.10
2023-05-14T12:53:24.851Z,11.19
2023-05-14T12:54:24.382Z,12.10
2023-05-14T12:55:24.996Z,11.60
2023-05-14T12:56:24.476Z,11.30
2023-05-14T12:57:24.344Z,11.69
2023-05-14T12:58:24.271Z,11.19
2023-05-14T12:59:25.173Z,10.60
2023-05-14T13:00:25.707Z,11.5
2023-05-14T13:01:24.465Z,11
2023-05-14T13:02:24.405Z,11.39
2023-05-14T13:03:24.805Z,11.80
2023-05-14T13:04:24.448Z,10.80
2023-05-14T13:05:24.817Z,10.10
2023-05-14T13:06:24.525Z,8.199
2023-05-14T13:07:24.308Z,9.100
2023-05-14T13:08:24.739Z,7.699
2023-05-14T13:09:24.747Z,6.699
2023-05-14T13:10:24.841Z,7.900
2023-05-14T13:11:24.559Z,8.699
2023-05-14T13:12:24.323Z,7.599
2023-05-14T13:13:24.256Z,7.5
2023-05-14T13:14:24.571Z,8.199
2023-05-14T13:15:24.903Z,8
2023-05-14T13:16:24.716Z,7.599
2023-05-14T13:17:24.571Z,7.699
2023-05-14T13:18:24.425Z,6.699
2023-05-14T13:19:24.363Z,7.5
2023-05-14T13:20:24.849Z,9.100
2023-05-14T13:21:24.615Z,6.199
2023-05-14T13:22:24.545Z,5.699
2023-05-14T13:23:24.548Z,5.199
2023-05-14T13:25:24.700Z,5.300
2023-05-14T13:26:24.651Z,5.099
2023-05-14T13:27:24.282Z,5.300
2023-05-14T13:28:24.894Z,5.199
2023-05-14T13:29:24.725Z,5.099
2023-05-14T13:30:24.561Z,5.199
2023-05-14T13:31:24.402Z,5
2023-05-14T13:32:24.141Z,4.699
2023-05-14T13:33:24.488Z,5.599
2023-05-14T13:34:24.497Z,5
2023-05-14T13:35:24.668Z,4.400
2023-05-14T13:36:24.559Z,5.800
2023-05-14T13:37:24.318Z,5.400
2023-05-14T13:38:24.780Z,5
2023-05-14T13:39:24.512Z,5.199
2023-05-14T13:40:24.428Z,6.699
2023-05-14T13:41:24.763Z,5.599
2023-05-14T13:42:24.530Z,6.199
2023-05-14T13:43:24.300Z,5.599
2023-05-14T13:44:25.101Z,5.300
2023-05-14T13:45:24.876Z,6.400
2023-05-14T13:46:24.359Z,5.099
2023-05-14T13:47:24.376Z,6.199
2023-05-14T13:48:24.381Z,4.5
2023-05-14T13:49:24.708Z,4.900
2023-05-14T13:50:43.642Z,4.5
2023-05-14T13:51:25.001Z,5.099
2023-05-14T13:52:24.441Z,4.5
2023-05-14T13:53:24.253Z,4.699
2023-05-14T13:54:24.490Z,4.300
2023-05-14T13:55:24.437Z,4.800
2023-05-14T13:56:24.295Z,4.199
2023-05-14T13:57:24.599Z,5.300
2023-05-14T13:58:24.353Z,4.900
2023-05-14T13:59:25.080Z,4.699
2023-05-14T14:00:47.587Z,5